createdAt,value
2019-05-26T00:00:11.179Z,96590.88
2019-05-26T00:01:18.751Z,96594.94
2019-05-26T00:02:26.753Z,96592.50
2019-05-26T00:03:34.023Z,96590.50
2019-05-26T00:04:42.044Z,96593.94
2019-05-26T00:05:49.344Z,96587.89
2019-05-26T00:06:57.439Z,96581.97
2019-05-26T00:08:04.755Z,96578.67
2019-05-26T00:09:12.807Z,96580.95
2019-05-26T00:10:20.099Z,96578.47
2019-05-26T00:11:28.086Z,96582.39
2019-05-26T00:12:36.900Z,96578.13
2019-05-26T00:13:44.890Z,96577.79
2019-05-26T00:14:52.091Z,96578.27
2019-05-26T00:16:00.093Z,96583.02
2019-05-26T00:17:07.321Z,96574.35
2019-05-26T00:18:15.341Z,96578.61
2019-05-26T00:19:22.565Z,96581.70
2019-05-26T00:20:30.554Z,96580.23
2019-05-26T00:21:37.779Z,96575.62
2019-05-26T00:22:45.800Z,96575.91
2019-05-26T00:23:56.148Z,96579.00
2019-05-26T00:25:02.698Z,96578.66
2019-05-26T00:26:10.073Z,96575.22
2019-05-26T00:27:18.139Z,96573.56
2019-05-26T00:28:25.366Z,96574.73
2019-05-26T00:29:33.355Z,96567.38
2019-05-26T00:30:40.555Z,96564.77
2019-05-26T00:31:48.724Z,96566.41
2019-05-26T00:32:56.008Z,96564.14
2019-05-26T00:34:04.089Z,96561.53
2019-05-26T00:35:12.965Z,96558.91
2019-05-26T00:36:20.957Z,96559.40
2019-05-26T00:37:29.442Z,96559.05
2019-05-26T00:38:37.434Z,96561.13
2019-05-26T00:39:44.658Z,96561.77
2019-05-26T00:40:52.671Z,96554.21
2019-05-26T00:41:59.977Z,96555.42
2019-05-26T00:43:07.973Z,96553.57
2019-05-26T00:44:15.196Z,96553.40
2019-05-26T00:45:23.307Z,96555.73
2019-05-26T00:46:30.506Z,96554.36
2019-05-26T00:47:38.617Z,96552.55
2019-05-26T00:48:46.171Z,96551.17
2019-05-26T00:49:54.150Z,96557.02
2019-05-26T00:51:01.372Z,96556.32
2019-05-26T00:52:09.378Z,96556.94
2019-05-26T00:53:16.590Z,96559.23
2019-05-26T00:54:24.700Z,96559.72
2019-05-26T00:55:32.090Z,96557.59
2019-05-26T00:56:40.101Z,96553.81
2019-05-26T00:57:47.292Z,96558.20
2019-05-26T00:58:55.317Z,96552.64
2019-05-26T01:00:02.510Z,96555.39
2019-05-26T01:01:10.603Z,96549.00
2019-05-26T01:02:17.951Z,96551.41
2019-05-26T01:03:25.941Z,96551.05
2019-05-26T01:04:33.152Z,96547.30
2019-05-26T01:05:41.342Z,96554.45
2019-05-26T01:06:49.633Z,96548.89
2019-05-26T01:08:06.361Z,96547.58
2019-05-26T01:09:08.971Z,96549.37
2019-05-26T01:10:17.066Z,96547.23
2019-05-26T01:11:24.276Z,96543.32
2019-05-26T01:12:32.269Z,96545.93
2019-05-26T01:13:39.496Z,96544.97
2019-05-26T01:14:47.558Z,96541.05
2019-05-26T01:15:54.785Z,96542.36
2019-05-26T01:17:02.806Z,96539.75
2019-05-26T01:18:10.017Z,96535.00
2019-05-26T01:19:18.045Z,96531.56
2019-05-26T01:20:26.298Z,96532.05
2019-05-26T01:21:34.294Z,96529.23
2019-05-26T01:22:41.500Z,96536.10
2019-05-26T01:23:49.507Z,96536.72
2019-05-26T01:24:56.747Z,96535.07
2019-05-26T01:26:04.934Z,96539.81
2019-05-26T01:27:12.143Z,96541.12
2019-05-26T01:28:20.153Z,96541.59
2019-05-26T01:29:27.375Z,96544.20
2019-05-26T01:30:40.246Z,96543.25
2019-05-26T01:31:47.468Z,96543.59
2019-05-26T01:32:55.758Z,96543.73
2019-05-26T01:34:02.974Z,96546.81
2019-05-26T01:35:12.386Z,96542.08
2019-05-26T01:36:19.805Z,96538.30
2019-05-26T01:37:28.204Z,96540.25
2019-05-26T01:38:35.893Z,96537.77
2019-05-26T01:39:43.887Z,96538.88
2019-05-26T01:40:51.079Z,96538.19
2019-05-26T01:41:59.099Z,96541.75
2019-05-26T01:43:06.389Z,96537.14
2019-05-26T01:44:14.376Z,96535.02
2019-05-26T01:45:21.574Z,96540.37
2019-05-26T01:46:29.576Z,96536.94
2019-05-26T01:47:36.817Z,96542.67
2019-05-26T01:48:44.852Z,96537.11
2019-05-26T01:49:52.183Z,96537.23
2019-05-26T01:51:00.206Z,96541.29
2019-05-26T01:52:07.430Z,96543.21
2019-05-26T01:53:15.409Z,96536.82
2019-05-26T01:54:22.631Z,96543.34
2019-05-26T01:55:30.607Z,96536.47
2019-05-26T01:56:37.892Z,96543.83
2019-05-26T01:57:45.897Z,96545.61
2019-05-26T01:58:53.123Z,96544.78
2019-05-26T02:00:01.144Z,96545.61
2019-05-26T02:01:09.945Z,96540.39
2019-05-26T02:02:17.939Z,96537.44
2019-05-26T02:03:25.147Z,96543.96
2019-05-26T02:04:33.139Z,96547.05
2019-05-26T02:05:40.422Z,96549.66
2019-05-26T02:06:48.417Z,96550.14
2019-05-26T02:07:55.623Z,96550.14
2019-05-26T02:09:06.359Z,96548.48
2019-05-26T02:10:13.690Z,96555.84
2019-05-26T02:11:21.684Z,96556.00
2019-05-26T02:12:28.863Z,96555.17
2019-05-26T02:13:36.870Z,96555.28
2019-05-26T02:14:44.054Z,96555.66
2019-05-26T02:15:53.123Z,96564.41
2019-05-26T02:17:00.317Z,96563.59
2019-05-26T02:18:08.741Z,96560.29
2019-05-26T02:19:15.957Z,96556.72
2019-05-26T02:20:24.679Z,96562.07
2019-05-26T02:21:31.944Z,96558.63
2019-05-26T02:22:39.885Z,96559.59
2019-05-26T02:23:47.074Z,96558.29
2019-05-26T02:24:55.065Z,96554.03
2019-05-26T02:26:02.323Z,96558.08
2019-05-26T02:27:10.312Z,96553.34
2019-05-26T02:28:17.523Z,96552.16
2019-05-26T02:29:25.518Z,96556.08
2019-05-26T02:30:32.724Z,96562.26
2019-05-26T02:31:40.745Z,96551.98
2019-05-26T02:32:47.955Z,96553.77
2019-05-26T02:33:55.961Z,96549.16
2019-05-26T02:35:03.338Z,96548.34
2019-05-26T02:36:11.367Z,96542.91
2019-05-26T02:37:18.582Z,96544.21
2019-05-26T02:38:26.861Z,96544.21
2019-05-26T02:39:34.103Z,96545.65
2019-05-26T02:40:42.089Z,96549.22
2019-05-26T02:41:49.300Z,96536.44
2019-05-26T02:42:57.293Z,96539.56
2019-05-26T02:44:04.921Z,96542.77
2019-05-26T02:45:16.444Z,96544.56
2019-05-26T02:46:23.663Z,96544.69
2019-05-26T02:47:31.654Z,96537.95
2019-05-26T02:48:38.878Z,96545.78
2019-05-26T02:49:46.940Z,96537.12
2019-05-26T02:50:54.172Z,96543.78
2019-05-26T02:52:02.162Z,96543.91
2019-05-26T02:53:09.389Z,96547.00
2019-05-26T02:54:17.392Z,96548.95
2019-05-26T02:55:24.835Z,96540.30
2019-05-26T02:56:33.613Z,96537.83
2019-05-26T02:57:40.826Z,96537.61
2019-05-26T02:58:49.895Z,96539.39
2019-05-26T02:59:57.111Z,96542.48
2019-05-26T03:01:05.335Z,96543.09
2019-05-26T03:02:12.547Z,96537.05
2019-05-26T03:03:20.545Z,96544.52
2019-05-26T03:04:27.935Z,96542.39
2019-05-26T03:05:36.236Z,96537.31
2019-05-26T03:06:44.256Z,96543.00
2019-05-26T03:07:55.140Z,96537.47
2019-05-26T03:09:21.789Z,96537.12
2019-05-26T03:10:16.844Z,96539.03
2019-05-26T03:11:28.115Z,96539.78
2019-05-26T03:12:41.439Z,96542.03
2019-05-26T03:13:52.545Z,96540.99
2019-05-26T03:15:04.134Z,96540.81
2019-05-26T03:16:14.018Z,96535.86
2019-05-26T03:17:24.574Z,96542.50
2019-05-26T03:18:35.329Z,96537.07
2019-05-26T03:19:45.549Z,96539.81
2019-05-26T03:20:55.672Z,96534.85
2019-05-26T03:22:05.730Z,96539.88
2019-05-26T03:23:13.062Z,96537.88
2019-05-26T03:24:24.143Z,96539.31
2019-05-26T03:25:35.418Z,96535.66
2019-05-26T03:26:43.461Z,96539.70
2019-05-26T03:27:50.685Z,96544.72
2019-05-26T03:28:58.699Z,96539.98
2019-05-26T03:30:06.749Z,96546.34
2019-05-26T03:31:14.712Z,96546.50
2019-05-26T03:32:21.925Z,96546.03
2019-05-26T03:33:30.084Z,96548.63
2019-05-26T03:34:37.292Z,96548.63
2019-05-26T03:35:46.497Z,96554.32
2019-05-26T03:36:54.859Z,96550.06
2019-05-26T03:38:02.853Z,96551.50
2019-05-26T03:39:10.076Z,96555.98
2019-05-26T03:40:18.069Z,96551.25
2019-05-26T03:41:25.280Z,96553.02
2019-05-26T03:42:33.284Z,96555.16
2019-05-26T03:43:40.495Z,96556.11
2019-05-26T03:44:48.553Z,96561.31
2019-05-26T03:46:23.527Z,96560.97
2019-05-26T03:47:31.715Z,96558.02
2019-05-26T03:48:38.922Z,96558.33
2019-05-26T03:49:46.926Z,96562.24
2019-05-26T03:50:54.157Z,96559.29
2019-05-26T03:52:02.184Z,96563.67
2019-05-26T03:53:09.402Z,96562.84
2019-05-26T03:54:18.366Z,96561.19
2019-05-26T03:55:25.593Z,96558.94
2019-05-26T03:56:33.585Z,96562.37
2019-05-26T03:57:40.816Z,96562.37
2019-05-26T03:58:48.906Z,96564.02
2019-05-26T03:59:56.157Z,96562.37
2019-05-26T04:01:04.158Z,96566.15
2019-05-26T04:02:11.360Z,96562.24
2019-05-26T04:03:19.362Z,96563.06
2019-05-26T04:04:26.580Z,96558.69
2019-05-26T04:05:34.565Z,96562.11
2019-05-26T04:06:41.837Z,96557.73
2019-05-26T04:07:49.843Z,96558.69
2019-05-26T04:08:57.045Z,96564.24
2019-05-26T04:10:06.441Z,96557.38
2019-05-26T04:11:13.799Z,96556.91
2019-05-26T04:12:21.819Z,96559.98
2019-05-26T04:13:29.044Z,96560.34
2019-05-26T04:14:37.065Z,96562.47
2019-05-26T04:15:44.296Z,96558.20
2019-05-26T04:16:52.304Z,96560.81
2019-05-26T04:17:59.565Z,96556.42
2019-05-26T04:19:07.571Z,96566.02
2019-05-26T04:20:15.203Z,96556.55
2019-05-26T04:21:23.239Z,96557.86
2019-05-26T04:22:30.477Z,96555.25
2019-05-26T04:23:38.475Z,96559.63
2019-05-26T04:24:45.700Z,96555.37
2019-05-26T04:25:53.701Z,96561.55
2019-05-26T04:27:00.912Z,96559.41
2019-05-26T04:28:08.902Z,96553.85
2019-05-26T04:29:16.101Z,96556.45
2019-05-26T04:30:24.138Z,96554.94
2019-05-26T04:31:31.352Z,96553.28
2019-05-26T04:32:39.339Z,96558.17
2019-05-26T04:33:46.557Z,96552.62
2019-05-26T04:34:54.556Z,96553.92
2019-05-26T04:36:01.783Z,96554.39
2019-05-26T04:37:09.799Z,96551.44
2019-05-26T04:38:17.025Z,96553.09
2019-05-26T04:39:25.023Z,96557.47
2019-05-26T04:40:32.235Z,96554.74
2019-05-26T04:41:40.252Z,96557.67
2019-05-26T04:42:47.547Z,96559.67
2019-05-26T04:43:55.625Z,96563.58
2019-05-26T04:45:02.838Z,96561.45
2019-05-26T04:46:10.861Z,96566.31
2019-05-26T04:47:18.083Z,96563.38
2019-05-26T04:48:26.263Z,96565.16
2019-05-26T04:49:37.274Z,96565.29
2019-05-26T04:50:43.176Z,96566.59
2019-05-26T04:51:50.413Z,96567.89
2019-05-26T04:53:06.158Z,96563.16
2019-05-26T04:54:07.514Z,96566.24
2019-05-26T04:55:15.725Z,96565.41
2019-05-26T04:56:23.897Z,96567.80
2019-05-26T04:57:31.918Z,96570.17
2019-05-26T04:58:39.120Z,96568.65
2019-05-26T04:59:47.137Z,96571.06
2019-05-26T05:00:54.349Z,96572.14
2019-05-26T05:02:02.354Z,96569.19
2019-05-26T05:03:09.577Z,96576.30
2019-05-26T05:04:17.582Z,96581.86
2019-05-26T05:05:24.826Z,96577.59
2019-05-26T05:06:32.817Z,96580.55
2019-05-26T05:07:40.030Z,96582.68
2019-05-26T05:08:48.023Z,96578.78
2019-05-26T05:09:55.227Z,96579.25
2019-05-26T05:11:03.248Z,96583.51
2019-05-26T05:12:10.557Z,96579.60
2019-05-26T05:13:18.555Z,96580.66
2019-05-26T05:14:25.784Z,96583.61
2019-05-26T05:15:33.787Z,96586.53
2019-05-26T05:16:41.001Z,96587.70
2019-05-26T05:17:49.005Z,96583.80
2019-05-26T05:18:56.232Z,96585.10
2019-05-26T05:20:04.226Z,96590.44
2019-05-26T05:21:11.436Z,96585.73
2019-05-26T05:22:19.441Z,96592.72
2019-05-26T05:23:26.668Z,96591.27
2019-05-26T05:24:34.671Z,96588.66
2019-05-26T05:25:41.885Z,96588.19
2019-05-26T05:26:50.164Z,96590.44
2019-05-26T05:27:57.385Z,96591.74
2019-05-26T05:29:05.540Z,96588.81
2019-05-26T05:30:13.367Z,96589.64
2019-05-26T05:31:21.360Z,96592.25
2019-05-26T05:32:32.848Z,96588.34
2019-05-26T05:33:39.336Z,96591.07
2019-05-26T05:34:47.649Z,96590.59
2019-05-26T05:35:55.753Z,96592.02
2019-05-26T05:37:02.952Z,96584.69
2019-05-26T05:38:10.970Z,96584.20
2019-05-26T05:39:18.169Z,96584.56
2019-05-26T05:40:26.187Z,96586.69
2019-05-26T05:41:33.399Z,96584.28
2019-05-26T05:42:41.394Z,96587.23
2019-05-26T05:43:48.616Z,96584.03
2019-05-26T05:44:56.622Z,96586.63
2019-05-26T05:46:03.847Z,96589.23
2019-05-26T05:47:11.841Z,96591.59
2019-05-26T05:48:19.053Z,96591.47
2019-05-26T05:49:27.055Z,96595.25
2019-05-26T05:50:34.254Z,96594.14
2019-05-26T05:51:42.303Z,96596.62
2019-05-26T05:52:49.546Z,96593.76
2019-05-26T05:53:57.574Z,96596.11
2019-05-26T05:55:05.108Z,96592.30
2019-05-26T05:56:13.122Z,96597.23
2019-05-26T05:57:20.388Z,96594.84
2019-05-26T05:58:28.447Z,96599.70
2019-05-26T05:59:35.726Z,96595.20
2019-05-26T06:00:44.153Z,96592.43
2019-05-26T06:01:51.364Z,96600.22
2019-05-26T06:02:59.369Z,96593.92
2019-05-26T06:04:06.881Z,96594.02
2019-05-26T06:05:15.397Z,96593.02
2019-05-26T06:06:22.608Z,96594.55
2019-05-26T06:07:30.635Z,96594.77
2019-05-26T06:08:37.826Z,96589.77
2019-05-26T06:09:45.821Z,96596.99
2019-05-26T06:10:53.042Z,96595.08
2019-05-26T06:12:01.243Z,96591.84
2019-05-26T06:13:08.469Z,96593.84
2019-05-26T06:14:16.460Z,96594.53
2019-05-26T06:15:23.687Z,96595.58
2019-05-26T06:16:31.741Z,96593.66
2019-05-26T06:17:38.963Z,96593.03
2019-05-26T06:18:46.969Z,96595.50
2019-05-26T06:19:54.180Z,96589.20
2019-05-26T06:21:02.173Z,96594.77
2019-05-26T06:22:09.475Z,96598.20
2019-05-26T06:23:17.478Z,96593.81
2019-05-26T06:24:24.691Z,96593.33
2019-05-26T06:25:32.688Z,96591.55
2019-05-26T06:26:39.877Z,96591.55
2019-05-26T06:27:48.281Z,96598.89
2019-05-26T06:28:55.485Z,96599.72
2019-05-26T06:30:03.595Z,96604.33
2019-05-26T06:31:10.804Z,96599.47
2019-05-26T06:32:18.840Z,96602.42
2019-05-26T06:33:26.036Z,96605.34
2019-05-26T06:34:34.073Z,96603.56
2019-05-26T06:35:41.380Z,96604.39
2019-05-26T06:36:49.414Z,96607.34
2019-05-26T06:37:56.664Z,96610.17
2019-05-26T06:39:05.890Z,96607.56
2019-05-26T06:40:13.745Z,96609.21
2019-05-26T06:41:32.869Z,96604.47
2019-05-26T06:42:30.656Z,96609.08
2019-05-26T06:43:38.676Z,96606.00
2019-05-26T06:44:53.316Z,96607.64
2019-05-26T06:45:55.671Z,96607.52
2019-05-26T06:47:02.950Z,96608.82
2019-05-26T06:48:11.077Z,96609.99
2019-05-26T06:49:18.306Z,96610.79
2019-05-26T06:50:26.307Z,96610.17
2019-05-26T06:51:33.639Z,96608.27
2019-05-26T06:52:41.670Z,96609.44
2019-05-26T06:53:48.876Z,96607.88
2019-05-26T06:54:56.883Z,96606.91
2019-05-26T06:56:04.118Z,96609.87
2019-05-26T06:57:12.118Z,96610.53
2019-05-26T06:58:19.358Z,96610.40
2019-05-26T06:59:28.422Z,96613.70
2019-05-26T07:00:35.647Z,96607.05
2019-05-26T07:01:43.640Z,96612.95
2019-05-26T07:02:50.896Z,96614.48
2019-05-26T07:03:58.901Z,96608.68
2019-05-26T07:05:07.058Z,96622.73
2019-05-26T07:06:15.053Z,96618.69
2019-05-26T07:07:22.275Z,96613.34
2019-05-26T07:08:30.286Z,96615.81
2019-05-26T07:09:37.523Z,96617.47
2019-05-26T07:10:45.529Z,96615.55
2019-05-26T07:11:59.608Z,96621.46
2019-05-26T07:13:02.444Z,96619.03
2019-05-26T07:14:09.682Z,96615.33
2019-05-26T07:15:20.306Z,96625.64
2019-05-26T07:16:37.511Z,96620.77
2019-05-26T07:17:37.231Z,96618.98
2019-05-26T07:18:44.436Z,96610.67
2019-05-26T07:19:52.450Z,96614.31
2019-05-26T07:20:59.668Z,96612.36
2019-05-26T07:22:07.775Z,96616.97
2019-05-26T07:23:14.991Z,96613.27
2019-05-26T07:24:23.005Z,96618.36
2019-05-26T07:25:30.223Z,96611.56
2019-05-26T07:26:38.275Z,96610.11
2019-05-26T07:27:45.473Z,96609.16
2019-05-26T07:28:54.558Z,96610.64
2019-05-26T07:30:01.860Z,96607.89
2019-05-26T07:31:10.135Z,96612.84
2019-05-26T07:32:17.360Z,96614.70
2019-05-26T07:33:25.397Z,96612.78
2019-05-26T07:34:32.637Z,96609.53
2019-05-26T07:35:40.674Z,96610.42
2019-05-26T07:36:47.903Z,96616.20
2019-05-26T07:37:55.942Z,96612.97
2019-05-26T07:39:03.193Z,96616.11
2019-05-26T07:40:11.829Z,96606.34
2019-05-26T07:41:19.089Z,96609.64
2019-05-26T07:42:27.111Z,96609.03
2019-05-26T07:43:34.333Z,96611.02
2019-05-26T07:44:42.338Z,96609.41
2019-05-26T07:45:49.557Z,96611.61
2019-05-26T07:46:57.572Z,96609.20
2019-05-26T07:48:04.874Z,96613.50
2019-05-26T07:49:12.878Z,96603.25
2019-05-26T07:50:20.137Z,96608.65
2019-05-26T07:51:28.170Z,96604.59
2019-05-26T07:52:35.411Z,96602.32
2019-05-26T07:53:43.427Z,96602.18
2019-05-26T07:54:50.738Z,96607.61
2019-05-26T07:55:58.756Z,96604.86
2019-05-26T07:57:06.089Z,96604.06
2019-05-26T07:58:14.094Z,96611.98
2019-05-26T07:59:21.332Z,96610.73
2019-05-26T08:00:30.159Z,96607.50
2019-05-26T08:01:37.409Z,96606.36
2019-05-26T08:02:45.384Z,96611.45
2019-05-26T08:03:52.598Z,96611.66
2019-05-26T08:05:00.600Z,96606.42
2019-05-26T08:06:07.871Z,96606.28
2019-05-26T08:07:15.907Z,96601.73
2019-05-26T08:08:24.092Z,96601.59
2019-05-26T08:09:32.129Z,96602.63
2019-05-26T08:10:39.371Z,96604.10
2019-05-26T08:11:47.378Z,96603.82
2019-05-26T08:12:54.620Z,96593.08
2019-05-26T08:14:02.641Z,96600.16
2019-05-26T08:15:10.753Z,96602.80
2019-05-26T08:16:18.757Z,96604.65
2019-05-26T08:17:25.981Z,96601.75
2019-05-26T08:18:33.987Z,96601.13
2019-05-26T08:19:41.279Z,96604.25
2019-05-26T08:20:50.255Z,96601.20
2019-05-26T08:21:57.483Z,96601.26
2019-05-26T08:23:05.488Z,96597.02
2019-05-26T08:24:12.716Z,96603.50
2019-05-26T08:25:20.840Z,96599.94
2019-05-26T08:26:28.051Z,96600.47
2019-05-26T08:27:36.032Z,96598.39
2019-05-26T08:28:43.237Z,96592.87
2019-05-26T08:29:51.253Z,96595.64
2019-05-26T08:30:58.475Z,96591.77
2019-05-26T08:32:06.478Z,96593.61
2019-05-26T08:33:13.691Z,96585.27
2019-05-26T08:34:21.704Z,96592.84
2019-05-26T08:35:28.906Z,96593.97
2019-05-26T08:36:36.901Z,96592.85
2019-05-26T08:37:44.107Z,96587.95
2019-05-26T08:38:52.129Z,96598.62
2019-05-26T08:40:18.234Z,96592.27
2019-05-26T08:41:27.593Z,96597.02
2019-05-26T08:42:44.053Z,96595.23
2019-05-26T08:43:44.542Z,96598.04
2019-05-26T08:44:51.782Z,96592.81
2019-05-26T08:45:59.761Z,96587.43
2019-05-26T08:47:06.973Z,96593.53
2019-05-26T08:48:14.992Z,96595.03
2019-05-26T08:49:22.255Z,96590.78
2019-05-26T08:50:33.946Z,96593.59
2019-05-26T08:51:39.190Z,96584.13
2019-05-26T08:52:47.245Z,96580.72
2019-05-26T08:53:54.467Z,96581.22
2019-05-26T08:55:02.489Z,96582.09
2019-05-26T08:56:09.715Z,96583.47
2019-05-26T08:57:17.785Z,96587.41
2019-05-26T08:58:24.980Z,96577.45
2019-05-26T08:59:33.004Z,96583.21
2019-05-26T09:00:40.228Z,96575.84
2019-05-26T09:01:48.215Z,96584.56
2019-05-26T09:02:55.444Z,96585.58
2019-05-26T09:04:03.451Z,96576.10
2019-05-26T09:05:11.094Z,96583.97
2019-05-26T09:06:19.090Z,96578.42
2019-05-26T09:07:26.299Z,96584.52
2019-05-26T09:08:34.318Z,96574.19
2019-05-26T09:09:41.529Z,96578.98
2019-05-26T09:10:49.565Z,96577.70
2019-05-26T09:11:56.801Z,96575.08
2019-05-26T09:13:04.816Z,96580.34
2019-05-26T09:14:12.055Z,96580.88
2019-05-26T09:15:21.206Z,96583.52
2019-05-26T09:16:28.396Z,96574.98
2019-05-26T09:17:36.509Z,96582.55
2019-05-26T09:18:43.733Z,96583.70
2019-05-26T09:19:51.754Z,96583.42
2019-05-26T09:20:58.980Z,96578.84
2019-05-26T09:22:07.049Z,96580.31
2019-05-26T09:23:14.242Z,96579.33
2019-05-26T09:24:22.252Z,96576.89
2019-05-26T09:25:29.510Z,96578.69
2019-05-26T09:26:37.488Z,96579.69
2019-05-26T09:27:44.755Z,96578.06
2019-05-26T09:28:52.764Z,96576.41
2019-05-26T09:30:00.001Z,96578.40
2019-05-26T09:31:08.034Z,96569.55
2019-05-26T09:32:15.412Z,96568.75
2019-05-26T09:33:23.448Z,96562.52
2019-05-26T09:34:30.672Z,96567.45
2019-05-26T09:35:38.666Z,96568.91
2019-05-26T09:36:45.862Z,96564.33
2019-05-26T09:37:53.869Z,96571.07
2019-05-26T09:39:01.077Z,96569.11
2019-05-26T09:40:11.401Z,96570.11
2019-05-26T09:41:18.603Z,96571.91
2019-05-26T09:42:26.615Z,96568.30
2019-05-26T09:43:33.837Z,96568.47
2019-05-26T09:44:41.847Z,96571.12
2019-05-26T09:45:49.038Z,96571.63
2019-05-26T09:46:57.029Z,96571.61
2019-05-26T09:48:04.271Z,96571.30
2019-05-26T09:49:12.278Z,96570.49
2019-05-26T09:50:21.303Z,96565.72
2019-05-26T09:51:29.389Z,96562.28
2019-05-26T09:52:36.623Z,96574.64
2019-05-26T09:53:44.632Z,96565.13
2019-05-26T09:54:51.886Z,96562.01
2019-05-26T09:55:59.925Z,96560.34
2019-05-26T09:57:07.181Z,96561.34
2019-05-26T09:58:15.183Z,96554.94
2019-05-26T09:59:22.411Z,96555.11
2019-05-26T10:00:30.645Z,96550.52
2019-05-26T10:01:37.927Z,96548.86
2019-05-26T10:02:45.943Z,96543.77
2019-05-26T10:03:53.173Z,96543.78
2019-05-26T10:05:01.166Z,96552.46
2019-05-26T10:06:08.573Z,96545.08
2019-05-26T10:07:16.630Z,96554.61
2019-05-26T10:08:23.831Z,96546.21
2019-05-26T10:09:31.870Z,96545.56
2019-05-26T10:10:39.082Z,96552.14
2019-05-26T10:11:47.086Z,96547.67
2019-05-26T10:12:54.309Z,96554.58
2019-05-26T10:14:02.361Z,96548.50
2019-05-26T10:15:11.687Z,96544.06
2019-05-26T10:16:19.663Z,96544.23
2019-05-26T10:17:26.949Z,96549.49
2019-05-26T10:18:36.128Z,96547.81
2019-05-26T10:19:43.322Z,96553.57
2019-05-26T10:20:51.326Z,96554.89
2019-05-26T10:21:58.600Z,96553.53
2019-05-26T10:23:06.761Z,96548.77
2019-05-26T10:24:13.982Z,96550.25
2019-05-26T10:25:21.989Z,96549.59
2019-05-26T10:26:29.226Z,96550.57
2019-05-26T10:27:37.266Z,96544.94
2019-05-26T10:28:44.481Z,96543.79
2019-05-26T10:29:52.600Z,96540.83
2019-05-26T10:30:59.873Z,96541.64
2019-05-26T10:32:08.105Z,96544.73
2019-05-26T10:33:16.308Z,96543.23
2019-05-26T10:34:24.294Z,96538.59
2019-05-26T10:35:31.658Z,96539.56
2019-05-26T10:36:39.741Z,96532.47
2019-05-26T10:37:46.961Z,96537.06
2019-05-26T10:38:55.030Z,96536.55
2019-05-26T10:40:02.319Z,96536.66
2019-05-26T10:41:10.413Z,96538.78
2019-05-26T10:42:17.620Z,96533.30
2019-05-26T10:43:25.656Z,96537.56
2019-05-26T10:44:32.856Z,96536.03
2019-05-26T10:45:40.832Z,96532.38
2019-05-26T10:46:48.054Z,96527.25
2019-05-26T10:47:56.222Z,96527.52
2019-05-26T10:49:03.591Z,96526.33
2019-05-26T10:50:12.420Z,96523.67
2019-05-26T10:51:19.647Z,96526.95
2019-05-26T10:52:27.875Z,96522.02
2019-05-26T10:53:35.099Z,96514.75
2019-05-26T10:54:43.131Z,96515.72
2019-05-26T10:55:50.353Z,96518.48
2019-05-26T10:56:58.383Z,96521.44
2019-05-26T10:58:05.806Z,96520.44
2019-05-26T10:59:13.780Z,96519.44
2019-05-26T11:00:21.876Z,96521.91
2019-05-26T11:01:29.884Z,96524.69
2019-05-26T11:02:37.108Z,96523.20
2019-05-26T11:03:45.099Z,96518.57
2019-05-26T11:04:52.310Z,96520.22
2019-05-26T11:06:00.375Z,96524.45
2019-05-26T11:07:07.621Z,96522.14
2019-05-26T11:08:15.624Z,96517.20
2019-05-26T11:09:22.835Z,96517.84
2019-05-26T11:10:30.855Z,96524.76
2019-05-26T11:11:38.216Z,96517.98
2019-05-26T11:12:46.208Z,96516.67
2019-05-26T11:14:02.574Z,96516.99
2019-05-26T11:15:03.165Z,96510.40
2019-05-26T11:16:10.468Z,96518.81
2019-05-26T11:17:18.506Z,96513.22
2019-05-26T11:18:25.714Z,96515.35
2019-05-26T11:19:33.718Z,96511.72
2019-05-26T11:20:40.984Z,96511.87
2019-05-26T11:21:48.969Z,96518.08
2019-05-26T11:22:56.179Z,96511.77
2019-05-26T11:24:04.216Z,96507.08
2019-05-26T11:25:12.145Z,96507.34
2019-05-26T11:26:20.167Z,96508.23
2019-05-26T11:27:27.377Z,96509.70
2019-05-26T11:28:35.455Z,96506.31
2019-05-26T11:29:42.697Z,96504.92
2019-05-26T11:30:50.769Z,96501.67
2019-05-26T11:31:58.037Z,96504.52
2019-05-26T11:33:06.163Z,96496.20
2019-05-26T11:34:13.389Z,96500.86
2019-05-26T11:35:23.094Z,96494.64
2019-05-26T11:36:30.313Z,96492.63
2019-05-26T11:37:38.309Z,96495.41
2019-05-26T11:38:45.534Z,96498.15
2019-05-26T11:39:53.582Z,96501.11
2019-05-26T11:41:00.898Z,96496.46
2019-05-26T11:42:13.171Z,96493.95
2019-05-26T11:43:18.942Z,96493.09
2019-05-26T11:44:26.929Z,96493.02
2019-05-26T11:45:34.153Z,96492.95
2019-05-26T11:46:42.193Z,96494.23
2019-05-26T11:47:49.429Z,96489.37
2019-05-26T11:48:57.483Z,96487.81
2019-05-26T11:50:04.950Z,96491.41
2019-05-26T11:51:12.989Z,96491.86
2019-05-26T11:52:20.492Z,96495.10
2019-05-26T11:53:28.537Z,96487.67
2019-05-26T11:54:35.804Z,96487.48
2019-05-26T11:55:44.092Z,96487.98
2019-05-26T11:56:51.304Z,96485.98
2019-05-26T11:57:59.341Z,96485.80
2019-05-26T11:59:06.656Z,96485.42
2019-05-26T12:00:18.097Z,96475.48
2019-05-26T12:01:25.339Z,96481.50
2019-05-26T12:02:33.344Z,96480.81
2019-05-26T12:03:40.599Z,96479.65
2019-05-26T12:04:48.607Z,96480.70
2019-05-26T12:05:55.816Z,96479.00
2019-05-26T12:07:04.594Z,96475.61
2019-05-26T12:08:11.889Z,96477.66
2019-05-26T12:09:19.942Z,96474.77
2019-05-26T12:10:27.541Z,96472.97
2019-05-26T12:11:35.577Z,96467.42
2019-05-26T12:12:42.833Z,96465.03
2019-05-26T12:13:50.823Z,96471.55
2019-05-26T12:14:58.070Z,96466.19
2019-05-26T12:16:07.154Z,96460.52
2019-05-26T12:17:14.365Z,96463.88
2019-05-26T12:18:23.434Z,96460.50
2019-05-26T12:19:30.648Z,96460.53
2019-05-26T12:20:38.654Z,96455.59
2019-05-26T12:21:45.876Z,96456.74
2019-05-26T12:22:53.884Z,96451.19
2019-05-26T12:24:01.123Z,96446.29
2019-05-26T12:25:09.639Z,96445.08
2019-05-26T12:26:16.867Z,96445.52
2019-05-26T12:27:24.889Z,96453.07
2019-05-26T12:28:32.112Z,96445.52
2019-05-26T12:29:40.149Z,96447.59
2019-05-26T12:30:48.441Z,96448.13
2019-05-26T12:31:56.463Z,96448.56
2019-05-26T12:33:03.702Z,96443.38
2019-05-26T12:34:11.786Z,96441.34
2019-05-26T12:35:20.420Z,96449.41
2019-05-26T12:36:28.455Z,96440.34
2019-05-26T12:37:35.696Z,96442.40
2019-05-26T12:38:52.748Z,96443.64
2019-05-26T12:39:59.975Z,96444.03
2019-05-26T12:41:07.981Z,96437.33
2019-05-26T12:42:17.084Z,96437.61
2019-05-26T12:43:25.211Z,96435.58
2019-05-26T12:44:32.435Z,96431.52
2019-05-26T12:45:40.430Z,96430.41
2019-05-26T12:46:47.651Z,96427.45
2019-05-26T12:47:55.658Z,96420.61
2019-05-26T12:49:02.883Z,96423.59
2019-05-26T12:50:11.807Z,96425.05
2019-05-26T12:51:19.257Z,96429.86
2019-05-26T12:52:27.247Z,96425.76
2019-05-26T12:53:34.497Z,96424.54
2019-05-26T12:54:42.495Z,96417.20
2019-05-26T12:55:49.691Z,96417.70
2019-05-26T12:56:57.697Z,96419.74
2019-05-26T12:58:05.383Z,96422.59
2019-05-26T12:59:13.398Z,96416.47
2019-05-26T13:00:21.360Z,96420.89
2019-05-26T13:01:29.436Z,96413.84
2019-05-26T13:02:36.645Z,96408.83
2019-05-26T13:03:44.642Z,96406.47
2019-05-26T13:04:51.851Z,96411.05
2019-05-26T13:05:59.884Z,96409.92
2019-05-26T13:07:07.190Z,96410.63
2019-05-26T13:08:16.242Z,96411.87
2019-05-26T13:09:23.453Z,96404.63
2019-05-26T13:10:31.460Z,96409.94
2019-05-26T13:11:38.700Z,96405.76
2019-05-26T13:12:46.707Z,96407.16
2019-05-26T13:13:53.920Z,96400.45
2019-05-26T13:15:05.814Z,96403.42
2019-05-26T13:16:12.121Z,96410.88
2019-05-26T13:17:20.126Z,96397.80